KCOD/COD METAR and TAF weather

Enter ICAO airport designator
Station Type Date Time Source
KCOD METAR 2022/12/04 10:56 UTC NOAA

KCOD 041056Z AUTO 34003KT 10SM CLR M11/M15 A3012 RMK AO2 SLP252 T11111150 FZRANO


Station Type Date Time Source
KCOD Decoded METAR 2022/12/04 10:56 UTC NOAA

Cody, WY, United States (KCOD) 44-31N 109-01W 1553M
Dec 04, 2022 - 05:56 AM EST / 2022.12.04 1056 UTC
Wind: from the NNW (340 degrees) at 3 MPH (3 KT):0
Visibility: 10 mile(s):0
Sky conditions: clear
Temperature: 12.0 F (-11.1 C)
Dew Point: 5.0 F (-15.0 C)
Relative Humidity: 72%
Pressure (altimeter): 30.12 in. Hg (1019 hPa)
ob: KCOD 041056Z AUTO 34003KT 10SM CLR M11/M15 A3012 RMK AO2 SLP252 T11111150 FZRANO
cycle: 11

Station Type Date Time Source
KCOD TAF 2022/12/04 12:30 UTC NOAA

TAF KCOD 041128Z 0412/0512 VRB05KT P6SM SKC
FM041700 04006KT P6SM BKN120
FM042200 VRB05KT P6SM VCSH BKN050
FM050400 01008KT P6SM VCSH SCT025 OVC040
FM050800 01007KT P6SM SCT030 BKN050

Example: see airport list